sensor_id;sensor_type;location;lat;lon;timestamp;temperature;humidity
8994;DHT22;4532;50.886;4.700;2022-10-17T00:01:23;17.20;99.90
8994;DHT22;4532;50.886;4.700;2022-10-17T00:03:51;17.20;99.90
8994;DHT22;4532;50.886;4.700;2022-10-17T00:06:18;17.20;99.90
8994;DHT22;4532;50.886;4.700;2022-10-17T00:08:45;17.20;99.90
8994;DHT22;4532;50.886;4.700;2022-10-17T00:11:16;17.20;99.90
8994;DHT22;4532;50.886;4.700;2022-10-17T00:13:44;17.20;99.90
8994;DHT22;4532;50.886;4.700;2022-10-17T00:16:11;17.20;99.90
8994;DHT22;4532;50.886;4.700;2022-10-17T00:18:41;17.20;99.90
8994;DHT22;4532;50.886;4.700;2022-10-17T00:21:16;17.20;99.90
8994;DHT22;4532;50.886;4.700;2022-10-17T00:23:44;17.20;99.90
8994;DHT22;4532;50.886;4.700;2022-10-17T00:26:12;17.20;99.90
8994;DHT22;4532;50.886;4.700;2022-10-17T00:28:39;17.20;99.90
8994;DHT22;4532;50.886;4.700;2022-10-17T00:31:09;17.20;99.90
8994;DHT22;4532;50.886;4.700;2022-10-17T00:33:38;17.20;99.90
8994;DHT22;4532;50.886;4.700;2022-10-17T00:36:09;17.10;99.90
8994;DHT22;4532;50.886;4.700;2022-10-17T00:38:40;17.20;99.90
8994;DHT22;4532;50.886;4.700;2022-10-17T00:41:14;17.20;99.90
8994;DHT22;4532;50.886;4.700;2022-10-17T00:44:00;17.20;99.90
8994;DHT22;4532;50.886;4.700;2022-10-17T00:46:37;17.20;99.90
8994;DHT22;4532;50.886;4.700;2022-10-17T00:49:09;17.20;99.90
8994;DHT22;4532;50.886;4.700;2022-10-17T00:51:47;17.20;99.90
8994;DHT22;4532;50.886;4.700;2022-10-17T00:54:16;17.20;99.90
8994;DHT22;4532;50.886;4.700;2022-10-17T00:56:46;17.10;99.90
8994;DHT22;4532;50.886;4.700;2022-10-17T00:59:15;17.10;99.90
8994;DHT22;4532;50.886;4.700;2022-10-17T01:02:01;17.10;99.90
8994;DHT22;4532;50.886;4.700;2022-10-17T01:04:29;17.10;99.90
8994;DHT22;4532;50.886;4.700;2022-10-17T01:06:57;17.10;99.90
8994;DHT22;4532;50.886;4.700;2022-10-17T01:09:24;17.10;99.90
8994;DHT22;4532;50.886;4.700;2022-10-17T01:20:19;17.00;99.90
8994;DHT22;4532;50.886;4.700;2022-10-17T01:37:32;17.00;99.90
8994;DHT22;4532;50.886;4.700;2022-10-17T01:40:21;17.00;99.90
8994;DHT22;4532;50.886;4.700;2022-10-17T01:43:16;16.90;99.90
8994;DHT22;4532;50.886;4.700;2022-10-17T01:45:54;16.90;99.90
8994;DHT22;4532;50.886;4.700;2022-10-17T01:48:33;16.90;99.90
8994;DHT22;4532;50.886;4.700;2022-10-17T01:51:08;16.80;99.90
8994;DHT22;4532;50.886;4.700;2022-10-17T01:53:44;16.90;99.90
8994;DHT22;4532;50.886;4.700;2022-10-17T01:56:13;16.90;99.90
8994;DHT22;4532;50.886;4.700;2022-10-17T01:58:50;16.90;99.90
8994;DHT22;4532;50.886;4.700;2022-10-17T02:01:19;16.90;99.90
8994;DHT22;4532;50.886;4.700;2022-10-17T02:03:48;16.90;99.90
8994;DHT22;4532;50.886;4.700;2022-10-17T02:06:17;16.90;99.90
8994;DHT22;4532;50.886;4.700;2022-10-17T02:08:50;17.00;99.90
8994;DHT22;4532;50.886;4.700;2022-10-17T02:11:22;17.00;99.90
8994;DHT22;4532;50.886;4.700;2022-10-17T02:16:59;17.00;99.90
8994;DHT22;4532;50.886;4.700;2022-10-17T02:19:34;17.00;99.90
8994;DHT22;4532;50.886;4.700;2022-10-17T02:30:39;17.10;99.90
8994;DHT22;4532;50.886;4.700;2022-10-17T02:35:42;17.10;99.90
8994;DHT22;4532;50.886;4.700;2022-10-17T02:38:13;17.20;99.90
8994;DHT22;4532;50.886;4.700;2022-10-17T02:40:41;17.20;99.90
8994;DHT22;4532;50.886;4.700;2022-10-17T02:43:13;17.20;99.90
8994;DHT22;4532;50.886;4.700;2022-10-17T02:45:40;17.30;99.90
8994;DHT22;4532;50.886;4.700;2022-10-17T02:48:37;17.30;99.90
8994;DHT22;4532;50.886;4.700;2022-10-17T02:56:43;17.40;99.90
8994;DHT22;4532;50.886;4.700;2022-10-17T02:59:14;17.50;99.90
8994;DHT22;4532;50.886;4.700;2022-10-17T03:01:43;17.50;99.90
8994;DHT22;4532;50.886;4.700;2022-10-17T03:04:13;17.50;99.90
8994;DHT22;4532;50.886;4.700;2022-10-17T03:06:40;17.50;99.90
8994;DHT22;4532;50.886;4.700;2022-10-17T03:09:07;17.60;99.90
8994;DHT22;4532;50.886;4.700;2022-10-17T03:11:35;17.60;99.90
8994;DHT22;4532;50.886;4.700;2022-10-17T03:14:04;17.70;99.90
8994;DHT22;4532;50.886;4.700;2022-10-17T03:16:32;17.70;99.90
8994;DHT22;4532;50.886;4.700;2022-10-17T03:18:59;17.80;99.90
8994;DHT22;4532;50.886;4.700;2022-10-17T03:21:26;17.80;99.90
8994;DHT22;4532;50.886;4.700;2022-10-17T03:23:53;17.90;99.90
8994;DHT22;4532;50.886;4.700;2022-10-17T03:26:21;18.00;99.90
8994;DHT22;4532;50.886;4.700;2022-10-17T03:28:48;18.00;99.90
8994;DHT22;4532;50.886;4.700;2022-10-17T03:31:20;18.10;99.90
8994;DHT22;4532;50.886;4.700;2022-10-17T03:33:48;18.10;99.90
8994;DHT22;4532;50.886;4.700;2022-10-17T03:36:18;18.20;99.90
8994;DHT22;4532;50.886;4.700;2022-10-17T03:38:46;18.20;99.90
8994;DHT22;4532;50.886;4.700;2022-10-17T03:41:14;18.20;99.90
8994;DHT22;4532;50.886;4.700;2022-10-17T03:43:41;18.30;99.90
8994;DHT22;4532;50.886;4.700;2022-10-17T03:46:10;18.30;99.90
8994;DHT22;4532;50.886;4.700;2022-10-17T03:48:42;18.40;99.90
8994;DHT22;4532;50.886;4.700;2022-10-17T03:51:10;18.40;99.90
8994;DHT22;4532;50.886;4.700;2022-10-17T03:53:37;18.50;99.90
8994;DHT22;4532;50.886;4.700;2022-10-17T03:56:19;18.50;99.90
8994;DHT22;4532;50.886;4.700;2022-10-17T03:58:47;18.50;99.90
8994;DHT22;4532;50.886;4.700;2022-10-17T04:01:16;18.50;99.90
8994;DHT22;4532;50.886;4.700;2022-10-17T04:03:43;18.60;99.90
8994;DHT22;4532;50.886;4.700;2022-10-17T04:06:14;18.60;99.90
8994;DHT22;4532;50.886;4.700;2022-10-17T04:08:41;18.60;99.90
8994;DHT22;4532;50.886;4.700;2022-10-17T04:11:16;18.60;99.90
8994;DHT22;4532;50.886;4.700;2022-10-17T04:13:44;18.60;99.90
8994;DHT22;4532;50.886;4.700;2022-10-17T04:16:14;18.60;99.90
8994;DHT22;4532;50.886;4.700;2022-10-17T04:18:44;18.70;99.90
8994;DHT22;4532;50.886;4.700;2022-10-17T04:21:13;18.70;99.90
8994;DHT22;4532;50.886;4.700;2022-10-17T04:23:41;18.70;99.90
8994;DHT22;4532;50.886;4.700;2022-10-17T04:26:08;18.70;99.90
8994;DHT22;4532;50.886;4.700;2022-10-17T04:28:37;18.70;99.90
8994;DHT22;4532;50.886;4.700;2022-10-17T04:31:12;18.70;99.90
8994;DHT22;4532;50.886;4.700;2022-10-17T04:33:42;18.70;99.90
8994;DHT22;4532;50.886;4.700;2022-10-17T04:36:12;18.70;99.90
8994;DHT22;4532;50.886;4.700;2022-10-17T04:38:39;18.70;99.90
8994;DHT22;4532;50.886;4.700;2022-10-17T04:41:13;18.70;99.90
8994;DHT22;4532;50.886;4.700;2022-10-17T04:43:43;18.80;99.90
8994;DHT22;4532;50.886;4.700;2022-10-17T04:46:17;18.80;99.90
8994;DHT22;4532;50.886;4.700;2022-10-17T04:48:44;18.70;99.90
8994;DHT22;4532;50.886;4.700;2022-10-17T04:51:15;18.80;99.90
8994;DHT22;4532;50.886;4.700;2022-10-17T04:53:48;18.80;99.90
8994;DHT22;4532;50.886;4.700;2022-10-17T04:56:19;18.80;99.90
8994;DHT22;4532;50.886;4.700;2022-10-17T04:58:50;18.80;99.90
8994;DHT22;4532;50.886;4.700;2022-10-17T05:01:22;18.80;99.90
8994;DHT22;4532;50.886;4.700;2022-10-17T05:03:49;18.80;99.90
8994;DHT22;4532;50.886;4.700;2022-10-17T05:06:22;18.80;99.90
8994;DHT22;4532;50.886;4.700;2022-10-17T05:08:53;18.80;99.90
8994;DHT22;4532;50.886;4.700;2022-10-17T05:11:23;18.80;99.90
8994;DHT22;4532;50.886;4.700;2022-10-17T05:14:00;18.90;99.90
8994;DHT22;4532;50.886;4.700;2022-10-17T05:16:28;18.90;99.90
8994;DHT22;4532;50.886;4.700;2022-10-17T05:19:01;18.90;99.90
8994;DHT22;4532;50.886;4.700;2022-10-17T05:21:29;18.90;99.90
8994;DHT22;4532;50.886;4.700;2022-10-17T05:24:07;18.90;99.90
8994;DHT22;4532;50.886;4.700;2022-10-17T05:26:35;18.90;99.90
8994;DHT22;4532;50.886;4.700;2022-10-17T05:29:02;18.90;99.90
8994;DHT22;4532;50.886;4.700;2022-10-17T05:31:30;19.00;99.90
8994;DHT22;4532;50.886;4.700;2022-10-17T05:34:01;19.00;99.90
8994;DHT22;4532;50.886;4.700;2022-10-17T05:36:35;19.00;99.90
8994;DHT22;4532;50.886;4.700;2022-10-17T05:39:04;19.00;99.90
8994;DHT22;4532;50.886;4.700;2022-10-17T05:41:31;19.00;99.90
8994;DHT22;4532;50.886;4.700;2022-10-17T05:43:59;19.00;99.90
8994;DHT22;4532;50.886;4.700;2022-10-17T05:46:32;19.00;99.90
8994;DHT22;4532;50.886;4.700;2022-10-17T05:49:01;19.00;99.90
8994;DHT22;4532;50.886;4.700;2022-10-17T05:51:45;19.00;99.90
8994;DHT22;4532;50.886;4.700;2022-10-17T05:54:12;19.00;99.90
8994;DHT22;4532;50.886;4.700;2022-10-17T05:56:39;19.00;99.90
8994;DHT22;4532;50.886;4.700;2022-10-17T05:59:06;19.10;99.90
8994;DHT22;4532;50.886;4.700;2022-10-17T06:01:33;19.00;99.90
8994;DHT22;4532;50.886;4.700;2022-10-17T06:04:01;19.10;99.90
8994;DHT22;4532;50.886;4.700;2022-10-17T06:06:28;19.10;99.90
8994;DHT22;4532;50.886;4.700;2022-10-17T06:08:55;19.10;99.90
8994;DHT22;4532;50.886;4.700;2022-10-17T06:11:22;19.10;99.90
8994;DHT22;4532;50.886;4.700;2022-10-17T06:13:50;19.10;99.90
8994;DHT22;4532;50.886;4.700;2022-10-17T06:16:17;19.10;99.90
8994;DHT22;4532;50.886;4.700;2022-10-17T06:18:44;19.20;99.90
8994;DHT22;4532;50.886;4.700;2022-10-17T06:21:14;19.20;99.90
8994;DHT22;4532;50.886;4.700;2022-10-17T06:23:43;19.20;99.90
8994;DHT22;4532;50.886;4.700;2022-10-17T06:26:12;19.20;99.90
8994;DHT22;4532;50.886;4.700;2022-10-17T06:28:42;19.20;99.90
8994;DHT22;4532;50.886;4.700;2022-10-17T06:31:15;19.20;99.90
8994;DHT22;4532;50.886;4.700;2022-10-17T06:33:42;19.30;99.90
8994;DHT22;4532;50.886;4.700;2022-10-17T06:36:12;19.30;99.90
8994;DHT22;4532;50.886;4.700;2022-10-17T06:38:40;19.30;99.90
8994;DHT22;4532;50.886;4.700;2022-10-17T06:41:10;19.30;99.90
8994;DHT22;4532;50.886;4.700;2022-10-17T06:43:41;19.30;99.90
8994;DHT22;4532;50.886;4.700;2022-10-17T06:46:16;19.40;99.90
8994;DHT22;4532;50.886;4.700;2022-10-17T06:48:46;19.40;99.90
8994;DHT22;4532;50.886;4.700;2022-10-17T06:51:15;19.40;99.90
8994;DHT22;4532;50.886;4.700;2022-10-17T06:53:42;19.40;99.90
8994;DHT22;4532;50.886;4.700;2022-10-17T06:56:10;19.40;99.90
8994;DHT22;4532;50.886;4.700;2022-10-17T06:58:40;19.40;99.90
8994;DHT22;4532;50.886;4.700;2022-10-17T07:01:10;19.50;99.90
8994;DHT22;4532;50.886;4.700;2022-10-17T07:03:38;19.50;99.90
8994;DHT22;4532;50.886;4.700;2022-10-17T07:06:06;19.60;99.90
8994;DHT22;4532;50.886;4.700;2022-10-17T07:08:33;19.60;99.90
8994;DHT22;4532;50.886;4.700;2022-10-17T07:11:14;19.60;99.90
8994;DHT22;4532;50.886;4.700;2022-10-17T07:13:46;19.70;99.90
8994;DHT22;4532;50.886;4.700;2022-10-17T07:16:14;19.70;99.90
8994;DHT22;4532;50.886;4.700;2022-10-17T07:18:42;19.80;99.90
8994;DHT22;4532;50.886;4.700;2022-10-17T07:21:11;19.80;99.90
8994;DHT22;4532;50.886;4.700;2022-10-17T07:23:39;19.90;99.90
8994;DHT22;4532;50.886;4.700;2022-10-17T07:26:09;19.90;99.90
8994;DHT22;4532;50.886;4.700;2022-10-17T07:28:39;20.00;99.90
8994;DHT22;4532;50.886;4.700;2022-10-17T07:31:09;20.00;99.90
8994;DHT22;4532;50.886;4.700;2022-10-17T07:33:40;20.00;99.90
8994;DHT22;4532;50.886;4.700;2022-10-17T07:36:08;20.10;99.90
8994;DHT22;4532;50.886;4.700;2022-10-17T07:38:35;20.10;99.90
8994;DHT22;4532;50.886;4.700;2022-10-17T07:41:05;20.10;99.90
8994;DHT22;4532;50.886;4.700;2022-10-17T07:43:33;20.10;99.90
8994;DHT22;4532;50.886;4.700;2022-10-17T07:46:01;20.10;99.90
8994;DHT22;4532;50.886;4.700;2022-10-17T07:48:30;20.20;99.90
8994;DHT22;4532;50.886;4.700;2022-10-17T07:51:01;20.20;99.90
8994;DHT22;4532;50.886;4.700;2022-10-17T07:53:29;20.20;99.90
8994;DHT22;4532;50.886;4.700;2022-10-17T07:55:56;20.20;99.90
8994;DHT22;4532;50.886;4.700;2022-10-17T07:58:24;20.20;99.90
8994;DHT22;4532;50.886;4.700;2022-10-17T08:00:51;20.20;99.90
8994;DHT22;4532;50.886;4.700;2022-10-17T08:03:19;20.20;99.90
8994;DHT22;4532;50.886;4.700;2022-10-17T08:05:46;20.20;99.90
8994;DHT22;4532;50.886;4.700;2022-10-17T08:08:13;20.20;99.90
8994;DHT22;4532;50.886;4.700;2022-10-17T08:10:40;20.20;99.90
8994;DHT22;4532;50.886;4.700;2022-10-17T08:13:08;20.20;99.90
8994;DHT22;4532;50.886;4.700;2022-10-17T08:15:36;20.20;99.90
8994;DHT22;4532;50.886;4.700;2022-10-17T08:18:04;20.30;99.90
8994;DHT22;4532;50.886;4.700;2022-10-17T08:20:32;20.30;99.90
8994;DHT22;4532;50.886;4.700;2022-10-17T08:22:59;20.30;99.90
8994;DHT22;4532;50.886;4.700;2022-10-17T08:25:26;20.30;99.90
8994;DHT22;4532;50.886;4.700;2022-10-17T08:27:53;20.30;99.90
8994;DHT22;4532;50.886;4.700;2022-10-17T08:30:23;20.30;99.90
8994;DHT22;4532;50.886;4.700;2022-10-17T08:32:51;20.30;99.90
8994;DHT22;4532;50.886;4.700;2022-10-17T08:35:18;20.30;99.90
8994;DHT22;4532;50.886;4.700;2022-10-17T08:37:49;20.30;99.90
8994;DHT22;4532;50.886;4.700;2022-10-17T08:40:23;20.30;99.90
8994;DHT22;4532;50.886;4.700;2022-10-17T08:46:04;20.30;99.90
8994;DHT22;4532;50.886;4.700;2022-10-17T08:48:37;20.30;99.90
8994;DHT22;4532;50.886;4.700;2022-10-17T08:51:22;20.20;99.90
8994;DHT22;4532;50.886;4.700;2022-10-17T08:54:13;20.30;99.90
8994;DHT22;4532;50.886;4.700;2022-10-17T08:56:45;20.30;99.90
8994;DHT22;4532;50.886;4.700;2022-10-17T08:59:26;20.20;99.90
8994;DHT22;4532;50.886;4.700;2022-10-17T09:02:20;20.30;99.90
8994;DHT22;4532;50.886;4.700;2022-10-17T09:10:51;20.30;99.90
8994;DHT22;4532;50.886;4.700;2022-10-17T09:16:44;20.30;99.90
8994;DHT22;4532;50.886;4.700;2022-10-17T09:19:39;20.30;99.90
8994;DHT22;4532;50.886;4.700;2022-10-17T09:22:15;20.30;99.90
8994;DHT22;4532;50.886;4.700;2022-10-17T09:24:52;20.30;99.90
8994;DHT22;4532;50.886;4.700;2022-10-17T09:30:43;20.30;99.90
8994;DHT22;4532;50.886;4.700;2022-10-17T09:33:23;20.30;99.90
8994;DHT22;4532;50.886;4.700;2022-10-17T09:39:15;20.30;99.90
8994;DHT22;4532;50.886;4.700;2022-10-17T09:41:47;20.30;99.90
8994;DHT22;4532;50.886;4.700;2022-10-17T09:45:11;20.20;99.90
8994;DHT22;4532;50.886;4.700;2022-10-17T09:49:50;20.30;99.90
8994;DHT22;4532;50.886;4.700;2022-10-17T09:52:29;20.30;99.90
8994;DHT22;4532;50.886;4.700;2022-10-17T09:58:01;20.30;99.90
8994;DHT22;4532;50.886;4.700;2022-10-17T10:00:40;20.30;99.90
8994;DHT22;4532;50.886;4.700;2022-10-17T10:05:35;20.30;99.90
8994;DHT22;4532;50.886;4.700;2022-10-17T10:08:05;20.40;99.90
8994;DHT22;4532;50.886;4.700;2022-10-17T10:10:37;20.40;99.90
8994;DHT22;4532;50.886;4.700;2022-10-17T10:15:47;20.40;99.90
8994;DHT22;4532;50.886;4.700;2022-10-17T10:18:31;20.50;99.90
8994;DHT22;4532;50.886;4.700;2022-10-17T10:23:36;20.50;99.90
8994;DHT22;4532;50.886;4.700;2022-10-17T10:28:39;20.60;99.90
8994;DHT22;4532;50.886;4.700;2022-10-17T10:31:08;20.60;99.90
8994;DHT22;4532;50.886;4.700;2022-10-17T10:33:40;20.70;99.90
8994;DHT22;4532;50.886;4.700;2022-10-17T10:36:15;20.70;99.90
8994;DHT22;4532;50.886;4.700;2022-10-17T10:38:52;20.70;99.90
8994;DHT22;4532;50.886;4.700;2022-10-17T10:41:23;20.70;99.90
8994;DHT22;4532;50.886;4.700;2022-10-17T10:43:54;20.80;99.90
8994;DHT22;4532;50.886;4.700;2022-10-17T10:46:26;20.80;99.90
8994;DHT22;4532;50.886;4.700;2022-10-17T10:48:59;20.80;99.90
8994;DHT22;4532;50.886;4.700;2022-10-17T10:51:41;20.80;99.90
8994;DHT22;4532;50.886;4.700;2022-10-17T10:54:19;20.90;99.90
8994;DHT22;4532;50.886;4.700;2022-10-17T10:56:55;20.90;99.90
8994;DHT22;4532;50.886;4.700;2022-10-17T11:04:54;20.90;99.90
8994;DHT22;4532;50.886;4.700;2022-10-17T11:07:34;20.90;99.90
8994;DHT22;4532;50.886;4.700;2022-10-17T11:10:22;20.90;99.90
8994;DHT22;4532;50.886;4.700;2022-10-17T11:18:06;20.90;99.90
8994;DHT22;4532;50.886;4.700;2022-10-17T11:20:54;20.90;99.90
8994;DHT22;4532;50.886;4.700;2022-10-17T11:23:33;21.00;99.90
8994;DHT22;4532;50.886;4.700;2022-10-17T11:26:10;21.00;99.90
8994;DHT22;4532;50.886;4.700;2022-10-17T11:28:37;20.90;99.90
8994;DHT22;4532;50.886;4.700;2022-10-17T11:31:11;21.00;99.90
8994;DHT22;4532;50.886;4.700;2022-10-17T11:33:49;21.00;99.90
8994;DHT22;4532;50.886;4.700;2022-10-17T11:36:25;21.00;99.90
8994;DHT22;4532;50.886;4.700;2022-10-17T11:39:07;21.00;99.90
8994;DHT22;4532;50.886;4.700;2022-10-17T11:41:50;21.00;99.90
8994;DHT22;4532;50.886;4.700;2022-10-17T11:44:33;21.00;99.90
8994;DHT22;4532;50.886;4.700;2022-10-17T11:47:27;21.00;99.90
8994;DHT22;4532;50.886;4.700;2022-10-17T11:50:28;21.00;99.90
8994;DHT22;4532;50.886;4.700;2022-10-17T11:53:16;21.00;99.90
8994;DHT22;4532;50.886;4.700;2022-10-17T11:55:45;21.00;99.90
8994;DHT22;4532;50.886;4.700;2022-10-17T12:09:45;21.10;99.90
8994;DHT22;4532;50.886;4.700;2022-10-17T12:12:28;21.10;99.90
8994;DHT22;4532;50.886;4.700;2022-10-17T12:17:44;21.20;99.90
8994;DHT22;4532;50.886;4.700;2022-10-17T12:20:34;21.20;99.90
8994;DHT22;4532;50.886;4.700;2022-10-17T12:25:34;21.20;99.90
8994;DHT22;4532;50.886;4.700;2022-10-17T12:30:58;21.20;99.90
8994;DHT22;4532;50.886;4.700;2022-10-17T12:46:46;21.20;99.90
8994;DHT22;4532;50.886;4.700;2022-10-17T12:52:26;21.20;99.90
8994;DHT22;4532;50.886;4.700;2022-10-17T13:02:52;21.30;99.90
8994;DHT22;4532;50.886;4.700;2022-10-17T13:05:27;21.30;99.90
8994;DHT22;4532;50.886;4.700;2022-10-17T13:07:57;21.40;99.90
8994;DHT22;4532;50.886;4.700;2022-10-17T13:10:28;21.40;99.90
8994;DHT22;4532;50.886;4.700;2022-10-17T13:15:32;21.40;99.90
8994;DHT22;4532;50.886;4.700;2022-10-17T13:18:00;21.40;99.90
8994;DHT22;4532;50.886;4.700;2022-10-17T13:20:29;21.40;99.90
8994;DHT22;4532;50.886;4.700;2022-10-17T13:22:58;21.40;99.90
8994;DHT22;4532;50.886;4.700;2022-10-17T13:25:26;21.40;99.90
8994;DHT22;4532;50.886;4.700;2022-10-17T13:28:11;21.40;99.90
8994;DHT22;4532;50.886;4.700;2022-10-17T13:30:45;21.40;99.90
8994;DHT22;4532;50.886;4.700;2022-10-17T13:33:28;21.40;99.90
8994;DHT22;4532;50.886;4.700;2022-10-17T13:36:00;21.50;99.90
8994;DHT22;4532;50.886;4.700;2022-10-17T13:38:31;21.50;99.90
8994;DHT22;4532;50.886;4.700;2022-10-17T13:41:02;21.50;99.90
8994;DHT22;4532;50.886;4.700;2022-10-17T13:43:50;21.50;99.90
8994;DHT22;4532;50.886;4.700;2022-10-17T13:46:35;21.50;99.90
8994;DHT22;4532;50.886;4.700;2022-10-17T13:49:33;21.60;99.90
8994;DHT22;4532;50.886;4.700;2022-10-17T13:52:03;21.60;99.90
8994;DHT22;4532;50.886;4.700;2022-10-17T13:54:36;21.60;99.90
8994;DHT22;4532;50.886;4.700;2022-10-17T14:00:05;21.60;99.90
8994;DHT22;4532;50.886;4.700;2022-10-17T14:02:39;21.60;99.90
8994;DHT22;4532;50.886;4.700;2022-10-17T14:07:53;21.60;99.90
8994;DHT22;4532;50.886;4.700;2022-10-17T14:10:39;21.60;99.90
8994;DHT22;4532;50.886;4.700;2022-10-17T14:13:18;21.60;99.90
8994;DHT22;4532;50.886;4.700;2022-10-17T14:15:45;21.50;99.90
8994;DHT22;4532;50.886;4.700;2022-10-17T14:18:17;21.50;99.90
8994;DHT22;4532;50.886;4.700;2022-10-17T14:20:46;21.50;99.90
8994;DHT22;4532;50.886;4.700;2022-10-17T14:26:24;21.50;99.90
8994;DHT22;4532;50.886;4.700;2022-10-17T14:31:44;21.50;99.90
8994;DHT22;4532;50.886;4.700;2022-10-17T14:34:36;21.40;99.90
8994;DHT22;4532;50.886;4.700;2022-10-17T14:39:59;21.40;99.90
8994;DHT22;4532;50.886;4.700;2022-10-17T14:42:26;21.40;99.90
8994;DHT22;4532;50.886;4.700;2022-10-17T14:45:04;21.40;99.90
8994;DHT22;4532;50.886;4.700;2022-10-17T14:47:32;21.40;99.90
8994;DHT22;4532;50.886;4.700;2022-10-17T14:50:27;21.40;99.90
8994;DHT22;4532;50.886;4.700;2022-10-17T14:55:39;21.40;99.90
8994;DHT22;4532;50.886;4.700;2022-10-17T14:58:17;21.40;99.90
8994;DHT22;4532;50.886;4.700;2022-10-17T15:00:44;21.30;99.90
8994;DHT22;4532;50.886;4.700;2022-10-17T15:03:12;21.40;99.90
8994;DHT22;4532;50.886;4.700;2022-10-17T15:05:39;21.40;99.90
8994;DHT22;4532;50.886;4.700;2022-10-17T15:08:13;21.40;99.90
8994;DHT22;4532;50.886;4.700;2022-10-17T15:10:41;21.40;99.90
8994;DHT22;4532;50.886;4.700;2022-10-17T15:13:10;21.40;99.90
8994;DHT22;4532;50.886;4.700;2022-10-17T15:15:57;21.40;99.90
8994;DHT22;4532;50.886;4.700;2022-10-17T15:18:26;21.40;99.90
8994;DHT22;4532;50.886;4.700;2022-10-17T15:20:53;21.40;99.90
8994;DHT22;4532;50.886;4.700;2022-10-17T15:23:32;21.40;99.90
8994;DHT22;4532;50.886;4.700;2022-10-17T15:26:02;21.30;99.90
8994;DHT22;4532;50.886;4.700;2022-10-17T15:28:31;21.30;99.90
8994;DHT22;4532;50.886;4.700;2022-10-17T15:30:58;21.30;99.90
8994;DHT22;4532;50.886;4.700;2022-10-17T15:33:28;21.30;99.90
8994;DHT22;4532;50.886;4.700;2022-10-17T15:35:55;21.30;99.90
8994;DHT22;4532;50.886;4.700;2022-10-17T15:38:27;21.30;99.90
8994;DHT22;4532;50.886;4.700;2022-10-17T15:40:54;21.30;99.90
8994;DHT22;4532;50.886;4.700;2022-10-17T15:43:22;21.20;99.90
8994;DHT22;4532;50.886;4.700;2022-10-17T15:45:49;21.20;99.90
8994;DHT22;4532;50.886;4.700;2022-10-17T15:48:19;21.20;99.90
8994;DHT22;4532;50.886;4.700;2022-10-17T15:50:48;21.20;99.90
8994;DHT22;4532;50.886;4.700;2022-10-17T15:53:15;21.20;99.90
8994;DHT22;4532;50.886;4.700;2022-10-17T15:55:42;21.20;99.90
8994;DHT22;4532;50.886;4.700;2022-10-17T15:58:14;21.10;99.90
8994;DHT22;4532;50.886;4.700;2022-10-17T16:00:42;21.10;99.90
8994;DHT22;4532;50.886;4.700;2022-10-17T16:03:15;21.10;99.90
8994;DHT22;4532;50.886;4.700;2022-10-17T16:05:45;21.10;99.90
8994;DHT22;4532;50.886;4.700;2022-10-17T16:08:14;21.10;99.90
8994;DHT22;4532;50.886;4.700;2022-10-17T16:10:42;21.00;99.90
8994;DHT22;4532;50.886;4.700;2022-10-17T16:13:19;21.00;99.90
8994;DHT22;4532;50.886;4.700;2022-10-17T16:15:47;21.00;99.90
8994;DHT22;4532;50.886;4.700;2022-10-17T16:18:16;21.00;99.90
8994;DHT22;4532;50.886;4.700;2022-10-17T16:20:46;21.00;99.90
8994;DHT22;4532;50.886;4.700;2022-10-17T16:23:15;21.00;99.90
8994;DHT22;4532;50.886;4.700;2022-10-17T16:25:47;20.90;99.90
8994;DHT22;4532;50.886;4.700;2022-10-17T16:28:14;20.90;99.90
8994;DHT22;4532;50.886;4.700;2022-10-17T16:30:42;20.90;99.90
8994;DHT22;4532;50.886;4.700;2022-10-17T16:33:12;20.90;99.90
8994;DHT22;4532;50.886;4.700;2022-10-17T16:35:39;20.90;99.90
8994;DHT22;4532;50.886;4.700;2022-10-17T16:38:06;20.80;99.90
8994;DHT22;4532;50.886;4.700;2022-10-17T16:40:35;20.80;99.90
8994;DHT22;4532;50.886;4.700;2022-10-17T16:43:03;20.80;99.90
8994;DHT22;4532;50.886;4.700;2022-10-17T16:45:30;20.80;99.90
8994;DHT22;4532;50.886;4.700;2022-10-17T16:47:58;20.80;99.90
8994;DHT22;4532;50.886;4.700;2022-10-17T16:50:28;20.80;99.90
8994;DHT22;4532;50.886;4.700;2022-10-17T16:52:57;20.70;99.90
8994;DHT22;4532;50.886;4.700;2022-10-17T16:55:24;20.70;99.90
8994;DHT22;4532;50.886;4.700;2022-10-17T16:57:53;20.70;99.90
8994;DHT22;4532;50.886;4.700;2022-10-17T17:00:21;20.60;99.90
8994;DHT22;4532;50.886;4.700;2022-10-17T17:02:48;20.70;99.90
8994;DHT22;4532;50.886;4.700;2022-10-17T17:05:15;20.60;99.90
8994;DHT22;4532;50.886;4.700;2022-10-17T17:07:42;20.60;99.90
8994;DHT22;4532;50.886;4.700;2022-10-17T17:10:10;20.60;99.90
8994;DHT22;4532;50.886;4.700;2022-10-17T17:12:37;20.50;99.90
8994;DHT22;4532;50.886;4.700;2022-10-17T17:15:04;20.50;99.90
8994;DHT22;4532;50.886;4.700;2022-10-17T17:17:31;20.50;99.90
8994;DHT22;4532;50.886;4.700;2022-10-17T17:20:15;20.50;99.90
8994;DHT22;4532;50.886;4.700;2022-10-17T17:22:42;20.40;99.90
8994;DHT22;4532;50.886;4.700;2022-10-17T17:25:09;20.40;99.90
8994;DHT22;4532;50.886;4.700;2022-10-17T17:27:36;20.40;99.90
8994;DHT22;4532;50.886;4.700;2022-10-17T17:30:04;20.40;99.90
8994;DHT22;4532;50.886;4.700;2022-10-17T17:32:31;20.30;99.90
8994;DHT22;4532;50.886;4.700;2022-10-17T17:34:59;20.30;99.90
8994;DHT22;4532;50.886;4.700;2022-10-17T17:37:26;20.30;99.90
8994;DHT22;4532;50.886;4.700;2022-10-17T17:39:53;20.20;99.90
8994;DHT22;4532;50.886;4.700;2022-10-17T17:42:21;20.20;99.90
8994;DHT22;4532;50.886;4.700;2022-10-17T17:44:49;20.20;99.90
8994;DHT22;4532;50.886;4.700;2022-10-17T17:47:16;20.20;99.90
8994;DHT22;4532;50.886;4.700;2022-10-17T17:49:46;20.10;99.90
8994;DHT22;4532;50.886;4.700;2022-10-17T17:52:14;20.10;99.90
8994;DHT22;4532;50.886;4.700;2022-10-17T17:54:41;20.00;99.90
8994;DHT22;4532;50.886;4.700;2022-10-17T17:57:08;20.00;99.90
8994;DHT22;4532;50.886;4.700;2022-10-17T17:59:37;19.90;99.90
8994;DHT22;4532;50.886;4.700;2022-10-17T18:02:04;19.90;99.90
8994;DHT22;4532;50.886;4.700;2022-10-17T18:04:33;19.80;99.90
8994;DHT22;4532;50.886;4.700;2022-10-17T18:07:00;19.80;99.90
8994;DHT22;4532;50.886;4.700;2022-10-17T18:09:27;19.80;99.90
8994;DHT22;4532;50.886;4.700;2022-10-17T18:11:54;19.70;99.90
8994;DHT22;4532;50.886;4.700;2022-10-17T18:14:22;19.70;99.90
8994;DHT22;4532;50.886;4.700;2022-10-17T18:16:52;19.70;99.90
8994;DHT22;4532;50.886;4.700;2022-10-17T18:19:19;19.60;99.90
8994;DHT22;4532;50.886;4.700;2022-10-17T18:21:50;19.60;99.90
8994;DHT22;4532;50.886;4.700;2022-10-17T18:24:17;19.60;99.90
8994;DHT22;4532;50.886;4.700;2022-10-17T18:26:45;19.60;99.90
8994;DHT22;4532;50.886;4.700;2022-10-17T18:29:12;19.50;99.90
8994;DHT22;4532;50.886;4.700;2022-10-17T18:31:39;19.50;99.90
8994;DHT22;4532;50.886;4.700;2022-10-17T18:34:09;19.50;99.90
8994;DHT22;4532;50.886;4.700;2022-10-17T18:36:38;19.50;99.90
8994;DHT22;4532;50.886;4.700;2022-10-17T18:39:05;19.50;99.90
8994;DHT22;4532;50.886;4.700;2022-10-17T18:41:35;19.40;99.90
8994;DHT22;4532;50.886;4.700;2022-10-17T18:44:02;19.40;99.90
8994;DHT22;4532;50.886;4.700;2022-10-17T18:46:34;19.40;99.90
8994;DHT22;4532;50.886;4.700;2022-10-17T18:49:11;19.40;99.90
8994;DHT22;4532;50.886;4.700;2022-10-17T18:51:41;19.40;99.90
8994;DHT22;4532;50.886;4.700;2022-10-17T18:54:17;19.40;99.90
8994;DHT22;4532;50.886;4.700;2022-10-17T18:56:52;19.40;99.90
8994;DHT22;4532;50.886;4.700;2022-10-17T18:59:20;19.30;99.90
8994;DHT22;4532;50.886;4.700;2022-10-17T19:01:49;19.30;99.90